Time;durP1;ratioP1;P1;durP2;ratioP2;P2;SDS_P1;SDS_P2;PMS_P1;PMS_P2;Temp;Humidity;BMP_temperature;BMP_pressure;BME280_temperature;BME280_humidity;BME280_pressure;Samples;Min_cycle;Max_cycle;Signal;HPM_P1;HPM_P2
2021/11/08 00:01:01;;;;;;;19.20;15.85;;;;;;;10.91;65.02;100203.66;1628247;85;21146;-68
2021/11/08 00:03:34;;;;;;;22.45;16.52;;;;;;;10.90;65.03;100201.27;1671430;85;21118;-69
2021/11/08 00:06:04;;;;;;;21.57;16.17;;;;;;;10.91;65.02;100198.84;1671138;84;21027;-68
2021/11/08 00:08:33;;;;;;;;;;;;;;;10.91;65.01;100185.48;1673599;84;21134;-69
2021/11/08 00:11:00;;;;;;;18.30;14.70;;;;;;;10.90;65.02;100180.69;1671318;84;20240;-68
2021/11/08 00:13:28;;;;;;;20.95;16.60;;;;;;;10.90;65.04;100180.69;1671207;84;21542;-68
2021/11/08 00:21:28;;;;;;;20.77;16.07;;;;;;;10.86;65.07;100176.13;1671215;84;21556;-68
2021/11/08 00:23:52;;;;;;;22.75;17.80;;;;;;;10.89;65.06;100172.41;1670653;84;21148;-68
2021/11/08 00:26:20;;;;;;;20.20;16.05;;;;;;;10.90;65.08;100178.02;1671211;84;21061;-68
2021/11/08 00:28:49;;;;;;;22.62;16.95;;;;;;;10.91;65.07;100173.47;1670936;84;21018;-68
2021/11/08 00:31:16;;;;;;;19.98;16.25;;;;;;;10.91;65.01;100162.78;1671094;84;21098;-68
2021/11/08 00:33:45;;;;;;;20.08;16.17;;;;;;;10.92;65.02;100163.03;1671071;84;21054;-68
2021/11/08 00:36:11;;;;;;;21.23;17.10;;;;;;;10.89;65.02;100163.56;1670973;85;21046;-68
2021/11/08 00:38:38;;;;;;;22.10;16.67;;;;;;;10.88;65.02;100158.77;1670984;85;21208;-69
2021/11/08 00:41:04;;;;;;;21.25;17.45;;;;;;;10.90;65.00;100161.98;1671288;85;21159;-69
2021/11/08 00:43:33;;;;;;;18.65;15.65;;;;;;;10.91;64.98;100161.44;1671044;85;21065;-68
2021/11/08 00:46:00;;;;;;;21.95;16.70;;;;;;;10.93;64.96;100164.66;1670007;84;21114;-69
2021/11/08 00:48:31;;;;;;;22.70;17.42;;;;;;;10.92;64.89;100159.02;1671207;84;21125;-68
2021/11/08 00:50:57;;;;;;;19.82;15.40;;;;;;;10.89;64.87;100160.89;1671045;84;21074;-68
2021/11/08 00:53:24;;;;;;;21.23;17.73;;;;;;;10.88;64.88;100153.96;1671094;85;21560;-69
2021/11/08 00:55:52;;;;;;;22.65;17.48;;;;;;;10.86;64.86;100151.57;1670979;84;21070;-68
2021/11/08 00:58:33;;;;;;;21.00;16.42;;;;;;;10.86;64.80;100156.09;1671018;85;21156;-68
2021/11/08 01:01:02;;;;;;;20.90;17.25;;;;;;;10.84;64.81;100152.90;1670786;84;21070;-68
2021/11/08 01:03:25;;;;;;;21.27;16.80;;;;;;;10.85;64.80;100156.63;1670428;85;21101;-69
2021/11/08 01:05:53;;;;;;;23.38;18.30;;;;;;;10.87;64.78;100160.38;1671063;84;21030;-69
2021/11/08 01:08:19;;;;;;;21.05;16.87;;;;;;;10.86;64.75;100160.92;1671201;84;21217;-68
2021/11/08 01:10:47;;;;;;;22.40;17.82;;;;;;;10.84;64.71;100163.05;1671267;84;21588;-68
2021/11/08 01:13:14;;;;;;;23.77;18.25;;;;;;;10.80;64.67;100170.80;1671194;84;21099;-68
2021/11/08 01:15:40;;;;;;;21.17;16.00;;;;;;;10.79;64.70;100168.38;1671365;84;21107;-68
2021/11/08 01:18:07;;;;;;;20.97;16.07;;;;;;;10.76;64.84;100161.73;1671078;85;21560;-69
2021/11/08 01:20:35;;;;;;;19.87;16.20;;;;;;;10.76;64.83;100162.27;1671117;85;20991;-68
2021/11/08 01:23:04;;;;;;;23.32;18.48;;;;;;;10.72;64.81;100161.17;1671141;85;21529;-68
2021/11/08 01:25:32;;;;;;;23.15;17.85;;;;;;;10.67;64.84;100156.64;1671347;85;21022;-68
2021/11/08 01:28:02;;;;;;;24.37;19.15;;;;;;;10.65;64.90;100153.97;1659068;85;21831;-68
2021/11/08 01:30:28;;;;;;;24.18;19.65;;;;;;;10.64;64.90;100156.38;1667340;85;21062;-69
2021/11/08 01:33:04;;;;;;;23.10;17.32;;;;;;;10.61;64.90;100160.38;1671378;84;20983;-69
2021/11/08 01:35:38;;;;;;;21.30;16.70;;;;;;;10.59;64.98;100164.38;1671253;84;21027;-68
2021/11/08 01:38:11;;;;;;;23.52;18.05;;;;;;;10.58;64.97;100153.44;1670952;85;21453;-68
2021/11/08 01:40:38;;;;;;;26.00;19.27;;;;;;;10.55;64.97;100162.23;1670290;84;21455;-69
2021/11/08 01:43:06;;;;;;;23.27;18.35;;;;;;;10.53;64.99;100156.91;1671385;84;21597;-69
2021/11/08 01:45:33;;;;;;;24.75;18.65;;;;;;;10.53;65.04;100157.72;1671307;84;21046;-69
2021/11/08 01:48:00;;;;;;;24.85;20.15;;;;;;;10.52;64.96;100163.30;1671305;84;21035;-69
2021/11/08 01:50:27;;;;;;;26.10;19.80;;;;;;;10.49;64.92;100154.48;1671249;85;21118;-69
2021/11/08 01:52:54;;;;;;;27.50;20.62;;;;;;;10.46;65.00;100150.50;1671386;84;21154;-69
2021/11/08 01:55:22;;;;;;;23.25;19.02;;;;;;;10.45;65.01;100150.75;1671083;84;21081;-69
2021/11/08 01:57:50;;;;;;;23.83;18.77;;;;;;;10.41;65.03;100151.02;1671416;84;21042;-69
2021/11/08 02:00:16;;;;;;;24.98;20.32;;;;;;;10.39;65.07;100152.61;1671167;84;21227;-70
2021/11/08 02:02:44;;;;;;;24.98;19.67;;;;;;;10.35;65.13;100143.53;1671257;84;21054;-69
2021/11/08 02:05:11;;;;;;;23.83;19.77;;;;;;;10.33;65.15;100157.16;1671158;85;21529;-69
2021/11/08 02:07:39;;;;;;;25.08;20.02;;;;;;;10.32;65.19;100146.73;1671126;84;21000;-69
2021/11/08 02:10:08;;;;;;;24.70;20.35;;;;;;;10.31;65.20;100149.14;1671287;84;21030;-69
2021/11/08 02:12:35;;;;;;;27.37;20.08;;;;;;;10.29;65.20;100141.38;1671509;85;21039;-69
2021/11/08 02:15:04;;;;;;;25.35;20.92;;;;;;;10.26;65.26;100140.57;1671370;84;21090;-68
2021/11/08 02:17:31;;;;;;;25.97;20.43;;;;;;;10.22;65.26;100138.68;1671216;84;21611;-69
2021/11/08 02:20:00;;;;;;;28.38;21.02;;;;;;;10.19;65.30;100140.54;1671111;84;21038;-68
2021/11/08 02:22:27;;;;;;;25.95;21.27;;;;;;;10.16;65.37;100143.73;1645906;84;21113;-69
2021/11/08 02:24:54;;;;;;;27.07;20.30;;;;;;;10.09;65.45;100140.78;1671088;85;21027;-68
2021/11/08 02:27:21;;;;;;;28.92;21.62;;;;;;;10.05;65.54;100137.05;1671658;84;21062;-69
2021/11/08 02:29:50;;;;;;;28.00;20.50;;;;;;;10.02;65.61;100141.57;1671246;85;21980;-68
2021/11/08 02:32:17;;;;;;;27.35;20.92;;;;;;;9.98;65.70;100131.16;1671533;84;21586;-68
2021/11/08 02:34:44;;;;;;;26.07;20.27;;;;;;;9.93;65.82;100128.47;1671200;84;21049;-68
2021/11/08 02:37:11;;;;;;;26.85;20.68;;;;;;;9.87;65.95;100132.18;1670119;85;21075;-69
2021/11/08 02:39:41;;;;;;;27.80;22.00;;;;;;;9.83;66.05;100143.11;1669961;84;21565;-68
2021/11/08 02:42:07;;;;;;;29.50;22.70;;;;;;;9.77;66.21;100148.16;1671661;85;21499;-68
2021/11/08 02:44:34;;;;;;;29.15;21.42;;;;;;;9.71;66.37;100148.69;1670887;84;21070;-69
2021/11/08 02:47:01;;;;;;;26.75;20.97;;;;;;;9.66;66.56;100150.52;1670030;84;21099;-68
2021/11/08 02:49:30;;;;;;;29.57;22.48;;;;;;;9.62;66.69;100156.91;1671304;85;21521;-68
2021/11/08 02:52:06;;;;;;;28.92;22.17;;;;;;;9.57;66.81;100154.20;1671370;85;21164;-69
2021/11/08 02:54:33;;;;;;;27.22;22.05;;;;;;;9.52;66.92;100153.66;1670004;85;21158;-68
2021/11/08 02:56:59;;;;;;;27.87;21.20;;;;;;;9.48;67.03;100148.59;1671236;85;21051;-68
2021/11/08 02:59:28;;;;;;;24.50;19.07;;;;;;;9.45;67.04;100137.64;1671271;85;20991;-68
2021/11/08 03:01:55;;;;;;;30.30;23.10;;;;;;;9.43;67.05;100141.89;1669840;85;21988;-69
2021/11/08 03:04:32;;;;;;;27.37;20.97;;;;;;;9.38;67.18;100147.20;1643760;86;21513;-68
2021/11/08 03:06:57;;;;;;;32.00;22.70;;;;;;;9.31;67.22;100138.62;1643865;87;21134;-68
2021/11/08 03:09:35;;;;;;;28.25;21.27;;;;;;;9.28;67.32;100128.47;1651896;85;21124;-69
2021/11/08 03:12:10;;;;;;;28.67;22.70;;;;;;;9.25;67.35;100123.69;1671302;85;21546;-68
2021/11/08 03:14:36;;;;;;;30.70;22.20;;;;;;;9.22;67.46;100128.20;1670965;84;21011;-68
2021/11/08 03:17:03;;;;;;;27.52;20.70;;;;;;;9.18;67.61;100145.73;1670092;85;20959;-68
2021/11/08 03:19:35;;;;;;;29.82;21.95;;;;;;;9.11;67.88;100149.45;1671256;85;21122;-69
2021/11/08 03:22:11;;;;;;;28.57;22.15;;;;;;;9.08;68.06;100154.47;1671517;85;21047;-68
2021/11/08 03:27:20;;;;;;;26.27;21.52;;;;;;;8.99;68.26;100154.16;1671252;85;21565;-68
2021/11/08 03:29:44;;;;;;;30.43;22.67;;;;;;;8.96;68.40;100150.67;1670871;85;21594;-68
2021/11/08 03:32:15;;;;;;;30.75;23.18;;;;;;;8.94;68.46;100156.77;1671306;85;21230;-68
2021/11/08 03:34:47;;;;;;;26.10;21.55;;;;;;;8.93;68.47;100153.31;1670987;84;20955;-68
2021/11/08 03:37:09;;;;;;;28.23;22.00;;;;;;;8.93;68.43;100152.52;1671197;85;21565;-69
2021/11/08 03:39:36;;;;;;;27.13;21.85;;;;;;;8.91;68.43;100149.30;1671233;85;21112;-69
2021/11/08 03:42:05;;;;;;;31.15;22.37;;;;;;;8.89;68.45;100148.23;1670143;84;21026;-69
2021/11/08 03:44:33;;;;;;;30.90;23.35;;;;;;;8.87;68.42;100141.02;1671130;85;21154;-69
2021/11/08 03:47:00;;;;;;;25.82;20.15;;;;;;;8.87;68.46;100140.22;1670790;85;21066;-69
2021/11/08 03:49:27;;;;;;;25.70;19.25;;;;;;;8.85;68.43;100136.49;1671086;84;21090;-69
2021/11/08 03:51:54;;;;;;;26.52;20.32;;;;;;;8.84;68.45;100142.05;1657735;85;20991;-68
2021/11/08 03:54:21;;;;;;;27.32;21.35;;;;;;;8.82;68.45;100140.20;1671327;84;21521;-68
2021/11/08 03:56:50;;;;;;;28.15;20.35;;;;;;;8.80;68.46;100135.64;1671441;85;21870;-69
2021/11/08 03:59:17;;;;;;;28.00;19.90;;;;;;;8.78;68.46;100134.55;1671035;84;21545;-68
2021/11/08 04:01:43;;;;;;;24.10;18.98;;;;;;;8.75;68.42;100135.05;1671344;85;21094;-68
2021/11/08 04:04:10;;;;;;;24.40;18.40;;;;;;;8.73;68.43;100136.39;1671391;85;21018;-68
2021/11/08 04:06:41;;;;;;;26.90;20.68;;;;;;;8.69;68.49;100138.23;1670182;85;21148;-68
2021/11/08 04:09:11;;;;;;;22.40;17.80;;;;;;;8.65;68.58;100138.47;1671351;84;21430;-68
2021/11/08 04:11:41;;;;;;;27.45;22.05;;;;;;;8.63;68.65;100135.78;1671179;85;21031;-68
2021/11/08 04:14:09;;;;;;;24.10;18.75;;;;;;;8.61;68.70;100132.56;1671298;85;20978;-68
2021/11/08 04:16:39;;;;;;;30.32;21.25;;;;;;;8.58;68.87;100133.86;1671203;85;20998;-68
2021/11/08 04:19:07;;;;;;;28.35;20.75;;;;;;;8.56;68.91;100125.34;1670938;84;21069;-68
2021/11/08 04:21:36;;;;;;;24.50;19.90;;;;;;;8.56;69.01;100125.88;1671340;85;21954;-68
2021/11/08 04:24:05;;;;;;;27.95;21.48;;;;;;;8.56;69.02;100133.34;1670967;85;21493;-68
2021/11/08 04:26:34;;;;;;;28.15;21.90;;;;;;;8.57;69.06;100137.59;1671238;85;21018;-68
2021/11/08 04:29:02;;;;;;;26.90;21.05;;;;;;;8.54;69.15;100144.75;1671023;85;20991;-69
2021/11/08 04:31:34;;;;;;;28.55;20.48;;;;;;;8.54;69.21;100146.61;1671184;85;21549;-69
2021/11/08 04:35:01;;;;;;;;;;;;;;;8.52;69.24;100150.84;1672569;84;21148;-69
2021/11/08 04:44:41;;;;;;;27.00;19.57;;;;;;;8.49;69.35;100167.34;1671132;84;20978;-68
2021/11/08 04:47:07;;;;;;;27.67;19.98;;;;;;;8.51;69.31;100161.23;1667725;84;21585;-68
2021/11/08 04:49:30;;;;;;;29.52;21.90;;;;;;;8.53;69.27;100167.11;1667547;84;21530;-68
2021/11/08 05:22:00;;;;;;;24.80;18.65;;;;;;;8.30;69.52;100190.02;1669963;85;21027;-68
2021/11/08 05:24:37;;;;;;;26.17;19.62;;;;;;;8.27;69.55;100182.00;1670896;85;21502;-68
2021/11/08 05:29:59;;;;;;;24.77;19.25;;;;;;;8.30;69.57;100204.12;1670499;85;21047;-68
2021/11/08 05:32:26;;;;;;;25.52;19.82;;;;;;;8.34;69.50;100200.42;1671767;85;21038;-68
2021/11/08 05:34:53;;;;;;;25.72;18.25;;;;;;;8.40;69.42;100210.10;1671141;84;21019;-68
2021/11/08 05:37:21;;;;;;;25.48;19.42;;;;;;;8.43;69.30;100207.74;1670790;85;21154;-68
2021/11/08 05:39:51;;;;;;;24.95;19.57;;;;;;;8.44;69.14;100201.36;1670601;85;21164;-68
2021/11/08 05:42:17;;;;;;;26.30;19.30;;;;;;;8.48;69.08;100210.97;1671252;85;21039;-68
2021/11/08 05:44:44;;;;;;;24.55;19.45;;;;;;;8.52;69.03;100197.95;1670840;84;21105;-69
2021/11/08 05:47:10;;;;;;;26.57;18.37;;;;;;;8.54;68.92;100197.98;1670366;85;21022;-68
2021/11/08 05:49:38;;;;;;;23.92;19.05;;;;;;;8.54;68.83;100197.98;1671389;84;21046;-68
2021/11/08 05:52:05;;;;;;;22.58;18.32;;;;;;;8.53;68.71;100215.03;1670564;85;21283;-69
2021/11/08 05:54:32;;;;;;;23.30;18.48;;;;;;;8.54;68.64;100217.95;1671128;85;21129;-69
2021/11/08 05:57:40;;;;;;;23.42;18.48;;;;;;;8.53;68.54;100223.02;1671652;85;21696;-69
2021/11/08 06:00:07;;;;;;;24.10;17.87;;;;;;;8.54;68.51;100228.60;1666238;85;21014;-69
2021/11/08 06:51:27;;;;;;;21.35;15.28;;;;;;;9.28;66.22;100259.05;1671020;84;21065;-69
2021/11/08 06:54:00;;;;;;;19.82;14.90;;;;;;;9.32;66.05;100260.17;1671182;84;21098;-69
2021/11/08 06:56:26;;;;;;;21.05;15.25;;;;;;;9.32;65.79;100259.64;1670923;85;21026;-68
2021/11/08 06:58:51;;;;;;;20.40;14.75;;;;;;;9.42;65.75;100258.91;1671201;84;21161;-69
2021/11/08 07:01:18;;;;;;;20.27;15.80;;;;;;;9.50;65.45;100262.95;1671257;84;21002;-68
2021/11/08 07:03:45;;;;;;;21.27;15.35;;;;;;;9.55;65.19;100259.80;1671195;84;21520;-69
2021/11/08 07:06:12;;;;;;;19.15;14.68;;;;;;;9.66;65.03;100259.86;1671349;84;21166;-69
2021/11/08 07:08:38;;;;;;;19.65;14.87;;;;;;;9.77;64.93;100261.50;1671362;85;21116;-69
2021/11/08 07:11:05;;;;;;;22.25;15.65;;;;;;;9.87;64.68;100253.55;1671232;85;21523;-69
2021/11/08 07:13:32;;;;;;;19.90;14.45;;;;;;;9.93;64.38;100253.86;1671262;84;21026;-69
2021/11/08 07:15:59;;;;;;;18.30;13.00;;;;;;;9.93;64.07;100261.86;1671262;84;21119;-69
2021/11/08 07:18:26;;;;;;;20.00;15.28;;;;;;;9.97;63.94;100253.63;1671230;84;21090;-69
2021/11/08 07:20:52;;;;;;;20.15;14.65;;;;;;;10.01;63.81;100261.37;1671088;84;21074;-69
2021/11/08 07:23:19;;;;;;;18.25;13.43;;;;;;;10.05;63.79;100258.98;1671259;84;21156;-69
2021/11/08 07:25:46;;;;;;;19.90;14.75;;;;;;;10.08;63.68;100266.48;1671112;84;21087;-69
2021/11/08 07:28:14;;;;;;;18.20;14.33;;;;;;;10.12;63.53;100266.75;1671361;84;21091;-69
2021/11/08 07:30:44;;;;;;;20.68;15.23;;;;;;;10.13;63.44;100272.36;1671130;84;21616;-69
2021/11/08 07:33:10;;;;;;;18.73;14.13;;;;;;;10.15;63.43;100269.70;1671443;84;21648;-69
2021/11/08 07:35:37;;;;;;;18.35;14.30;;;;;;;10.16;63.37;100271.30;1671036;85;21577;-69
2021/11/08 07:38:03;;;;;;;19.02;14.80;;;;;;;10.16;63.25;100276.64;1671207;84;20987;-69
2021/11/08 07:40:31;;;;;;;17.32;13.45;;;;;;;10.21;63.26;100290.55;1671263;84;21620;-69
2021/11/08 07:42:57;;;;;;;18.62;13.58;;;;;;;10.24;63.29;100304.72;1671486;84;21019;-69
2021/11/08 07:45:26;;;;;;;20.52;14.05;;;;;;;10.25;63.20;100302.31;1671295;84;20994;-69
2021/11/08 07:47:53;;;;;;;17.07;12.85;;;;;;;10.27;63.23;100308.23;1671028;84;21155;-69
2021/11/08 07:50:20;;;;;;;16.35;12.25;;;;;;;10.29;63.14;100316.77;1671271;85;21073;-69
2021/11/08 07:52:47;;;;;;;16.70;12.47;;;;;;;10.31;63.02;100317.31;1671192;85;21772;-69
2021/11/08 07:55:14;;;;;;;17.32;13.32;;;;;;;10.32;62.89;100307.70;1671230;85;20983;-69
2021/11/08 07:57:40;;;;;;;15.85;12.68;;;;;;;10.34;62.75;100311.45;1671491;85;21019;-70
2021/11/08 08:00:09;;;;;;;15.45;12.30;;;;;;;10.36;62.82;100303.97;1671137;84;21790;-70
2021/11/08 08:02:37;;;;;;;15.68;12.95;;;;;;;10.41;62.70;100313.34;1669714;85;21057;-69
2021/11/08 08:05:05;;;;;;;15.80;12.13;;;;;;;10.44;62.51;100313.36;1669283;85;21133;-69
2021/11/08 08:07:32;;;;;;;17.17;12.82;;;;;;;10.52;62.54;100315.52;1671104;85;21073;-69
2021/11/08 08:09:58;;;;;;;15.60;12.47;;;;;;;10.60;62.46;100316.89;1671340;84;21518;-69
2021/11/08 08:12:27;;;;;;;17.05;12.88;;;;;;;10.65;62.31;100315.55;1671343;85;21483;-69
2021/11/08 08:14:54;;;;;;;17.50;12.33;;;;;;;10.72;61.79;100324.12;1670900;84;21491;-70
2021/11/08 08:17:21;;;;;;;15.70;12.03;;;;;;;10.77;61.53;100320.14;1671361;85;21519;-69
2021/11/08 08:19:48;;;;;;;16.67;11.70;;;;;;;10.80;61.36;100322.28;1671263;84;21073;-69
2021/11/08 08:22:15;;;;;;;15.50;11.33;;;;;;;10.83;61.18;100325.77;1671098;84;21632;-70
2021/11/08 08:24:41;;;;;;;14.90;11.83;;;;;;;10.89;61.20;100323.38;1668530;85;21129;-69
2021/11/08 08:27:08;;;;;;;15.68;12.28;;;;;;;10.97;61.21;100326.05;1671141;84;21085;-70
2021/11/08 08:29:35;;;;;;;31.48;13.35;;;;;;;11.01;60.60;100313.76;1671287;84;21093;-71
2021/11/08 08:32:02;;;;;;;19.35;12.90;;;;;;;11.00;60.42;100318.84;1669618;84;21049;-70
2021/11/08 08:34:30;;;;;;;16.00;10.95;;;;;;;10.98;60.49;100330.32;1668556;84;21077;-70
2021/11/08 08:36:58;;;;;;;26.85;13.85;;;;;;;11.05;60.62;100330.86;1669888;85;21201;-69
2021/11/08 08:39:26;;;;;;;40.35;14.65;;;;;;;11.13;60.55;100332.23;1671071;85;21023;-69
2021/11/08 08:41:53;;;;;;;18.35;12.20;;;;;;;11.23;60.69;100329.56;1670819;85;21493;-70
2021/11/08 08:44:20;;;;;;;15.43;11.10;;;;;;;11.35;59.97;100332.78;1667489;85;21581;-71
2021/11/08 08:46:47;;;;;;;15.40;10.58;;;;;;;11.37;59.60;100333.84;1670100;84;21058;-70
2021/11/08 08:49:15;;;;;;;15.50;11.50;;;;;;;11.43;59.41;100336.24;1669827;84;21919;-70
2021/11/08 08:51:42;;;;;;;14.35;10.70;;;;;;;11.46;59.33;100330.36;1669489;84;21078;-70
2021/11/08 08:54:10;;;;;;;14.25;11.05;;;;;;;11.54;59.52;100341.59;1670740;84;21533;-68
2021/11/08 08:56:37;;;;;;;18.75;11.15;;;;;;;11.61;59.15;100336.77;1671231;85;21038;-70
2021/11/08 08:59:03;;;;;;;14.40;10.50;;;;;;;11.72;59.20;100343.73;1669564;84;21606;-71
2021/11/08 09:01:30;;;;;;;13.68;11.38;;;;;;;11.81;58.66;100342.63;1669639;86;21505;-70
2021/11/08 09:03:58;;;;;;;13.62;10.48;;;;;;;11.84;58.01;100352.28;1669671;84;21078;-69
2021/11/08 09:06:26;;;;;;;12.53;9.28;;;;;;;11.82;58.01;100348.27;1646422;86;20979;-70
2021/11/08 09:08:53;;;;;;;14.07;10.48;;;;;;;11.85;58.19;100349.89;1669902;84;21660;-70
2021/11/08 09:11:22;;;;;;;14.03;9.93;;;;;;;11.86;57.97;100352.83;1669990;84;21018;-69
2021/11/08 09:13:49;;;;;;;13.68;10.10;;;;;;;11.92;58.10;100359.77;1669925;86;21095;-69
2021/11/08 09:16:18;;;;;;;13.20;10.35;;;;;;;11.95;57.79;100354.42;1669735;84;21090;-71
2021/11/08 09:18:54;;;;;;;12.63;9.63;;;;;;;11.98;57.74;100347.19;1669897;86;21050;-69
2021/11/08 09:21:25;;;;;;;12.78;9.38;;;;;;;12.05;57.89;100357.62;1669857;86;21003;-70
2021/11/08 09:23:53;;;;;;;13.58;9.63;;;;;;;12.08;57.58;100348.50;1669804;84;21139;-69
2021/11/08 09:26:20;;;;;;;14.83;9.30;;;;;;;12.13;57.12;100344.45;1669812;85;21110;-69
2021/11/08 09:28:47;;;;;;;15.03;8.80;;;;;;;12.16;56.99;100339.10;1669518;84;21041;-70
2021/11/08 09:31:14;;;;;;;12.13;9.15;;;;;;;12.25;57.09;100336.13;1669741;84;20991;-70
2021/11/08 09:33:40;;;;;;;13.15;8.95;;;;;;;12.33;56.62;100331.54;1671079;85;21086;-70
2021/11/08 09:36:08;;;;;;;12.43;8.43;;;;;;;12.37;56.41;100329.94;1671183;84;21598;-69
2021/11/08 09:38:38;;;;;;;13.28;8.48;;;;;;;12.51;56.28;100338.72;1671215;84;21124;-70
2021/11/08 09:41:08;;;;;;;10.03;8.23;;;;;;;12.54;55.20;100335.49;1671454;84;21066;-69
2021/11/08 09:43:35;;;;;;;12.43;8.67;;;;;;;12.57;55.34;100321.52;1671290;84;21356;-70
2021/11/08 09:46:01;;;;;;;13.90;8.10;;;;;;;12.61;54.91;100322.59;1671263;84;21139;-69
2021/11/08 09:48:29;;;;;;;11.23;8.17;;;;;;;12.73;55.11;100328.95;1670202;84;21682;-70
2021/11/08 09:50:56;;;;;;;12.47;8.87;;;;;;;12.85;54.80;100327.53;1669996;84;21321;-71
2021/11/08 09:53:22;;;;;;;11.73;8.43;;;;;;;12.89;54.18;100339.30;1669446;84;21769;-70
2021/11/08 09:55:49;;;;;;;12.93;8.60;;;;;;;12.87;53.51;100338.79;1670101;84;21377;-70
2021/11/08 09:58:18;;;;;;;10.87;8.00;;;;;;;12.87;53.70;100339.34;1669648;84;22071;-69
2021/11/08 10:00:50;;;;;;;12.93;8.10;;;;;;;12.88;53.81;100338.25;1669902;84;21794;-69
2021/11/08 10:03:24;;;;;;;11.57;7.70;;;;;;;12.95;53.78;100349.45;1669773;86;21865;-70
2021/11/08 10:05:55;;;;;;;11.00;8.40;;;;;;;12.94;53.28;100346.52;1669902;84;21405;-68
2021/11/08 10:08:28;;;;;;;10.87;7.87;;;;;;;12.92;53.19;100359.39;1669648;85;21338;-69
2021/11/08 10:11:00;;;;;;;9.37;7.37;;;;;;;12.87;53.45;100357.55;1670058;84;21456;-68
2021/11/08 10:13:29;;;;;;;12.07;7.60;;;;;;;12.80;53.11;100350.36;1671516;85;21204;-68
2021/11/08 10:16:10;;;;;;;10.30;7.63;;;;;;;12.77;52.75;100341.53;1671163;84;21817;-68
2021/11/08 10:18:38;;;;;;;11.10;7.83;;;;;;;12.79;52.99;100355.98;1671608;85;21086;-70
2021/11/08 10:21:10;;;;;;;10.47;7.00;;;;;;;12.76;52.70;100357.33;1671511;85;21241;-70
2021/11/08 10:23:41;;;;;;;9.97;7.20;;;;;;;12.70;52.96;100359.80;1669858;85;21272;-69
2021/11/08 10:26:18;;;;;;;10.58;7.58;;;;;;;12.71;53.29;100366.75;1671604;84;21310;-70
2021/11/08 10:29:01;;;;;;;9.07;7.17;;;;;;;12.67;52.65;100363.82;1670090;85;21537;-69
2021/11/08 10:31:32;;;;;;;11.12;7.90;;;;;;;12.63;52.32;100364.62;1668752;84;21341;-70
2021/11/08 10:34:03;;;;;;;12.70;7.30;;;;;;;12.55;52.34;100356.64;1671553;84;21198;-70
2021/11/08 10:36:32;;;;;;;9.13;6.60;;;;;;;12.56;52.32;100370.83;1670995;84;21876;-70
2021/11/08 10:39:01;;;;;;;10.90;7.00;;;;;;;12.56;52.30;100370.83;1669805;84;21361;-69
2021/11/08 10:41:33;;;;;;;9.97;7.30;;;;;;;12.57;52.74;100367.89;1670028;85;22181;-69
2021/11/08 10:44:10;;;;;;;10.53;7.07;;;;;;;12.63;52.86;100378.83;1654286;86;21424;-71
2021/11/08 10:46:41;;;;;;;11.73;6.93;;;;;;;12.74;52.16;100380.94;1671305;84;21316;-70
2021/11/08 10:49:17;;;;;;;7.78;4.90;;;;;;;12.79;51.83;100372.86;1646597;86;21327;-70
2021/11/08 10:51:47;;;;;;;7.90;5.40;;;;;;;12.77;50.44;100356.27;1670813;84;21132;-70
2021/11/08 10:54:18;;;;;;;9.60;6.07;;;;;;;12.82;50.34;100358.91;1669973;84;22023;-69
2021/11/08 10:56:48;;;;;;;10.67;5.77;;;;;;;12.84;50.30;100354.09;1669943;85;21359;-69
2021/11/08 10:59:21;;;;;;;8.70;4.80;;;;;;;12.94;50.70;100343.05;1671543;85;21699;-68
2021/11/08 11:01:57;;;;;;;9.67;5.27;;;;;;;13.02;49.65;100341.11;1671382;84;21818;-69
2021/11/08 11:04:43;;;;;;;7.73;4.83;;;;;;;13.07;49.55;100338.41;1671564;85;21308;-70
2021/11/08 11:07:09;;;;;;;8.23;5.00;;;;;;;13.12;49.44;100324.40;1671163;84;21981;-69
2021/11/08 11:09:37;;;;;;;8.70;4.53;;;;;;;13.18;49.42;100321.15;1671086;85;21133;-69
2021/11/08 11:12:16;;;;;;;6.97;4.20;;;;;;;13.17;48.27;100317.42;1671258;85;21333;-70
2021/11/08 11:14:50;;;;;;;6.70;4.40;;;;;;;13.14;47.64;100335.66;1670854;85;21441;-69
2021/11/08 11:17:28;;;;;;;8.87;4.50;;;;;;;13.09;47.44;100326.84;1642645;86;21194;-70
2021/11/08 11:20:15;;;;;;;7.30;4.43;;;;;;;13.06;47.78;100340.29;1671363;85;21664;-70
2021/11/08 11:22:49;;;;;;;7.93;4.30;;;;;;;13.08;47.60;100350.72;1642134;86;21866;-70
2021/11/08 11:25:16;;;;;;;9.13;4.20;;;;;;;13.05;47.32;100350.73;1671181;84;21268;-69
2021/11/08 11:27:51;;;;;;;7.73;4.17;;;;;;;13.01;47.52;100342.19;1671355;85;21034;-70
2021/11/08 11:30:22;;;;;;;6.07;3.60;;;;;;;12.99;47.38;100360.42;1670451;84;21349;-70
2021/11/08 11:33:13;;;;;;;7.43;4.10;;;;;;;12.94;46.86;100361.27;1642695;86;21275;-70
2021/11/08 11:35:49;;;;;;;;;;;;;;;12.89;47.09;100355.92;1673327;85;21270;-70
2021/11/08 11:38:26;;;;;;;6.70;3.83;;;;;;;12.93;47.52;100354.83;1644048;86;20180;-70
2021/11/08 11:41:14;;;;;;;6.00;3.60;;;;;;;12.93;47.32;100346.78;1658408;86;21543;-68
2021/11/08 11:43:48;;;;;;;7.43;3.57;;;;;;;12.89;46.97;100352.70;1644881;86;21314;-69
2021/11/08 11:46:21;;;;;;;6.00;3.20;;;;;;;12.87;47.26;100338.79;1669824;86;21367;-69
2021/11/08 11:48:48;;;;;;;5.80;3.40;;;;;;;12.87;47.12;100348.17;1641083;87;21314;-68
2021/11/08 11:51:18;;;;;;;7.17;3.60;;;;;;;12.82;46.99;100336.67;1669704;86;21361;-69
2021/11/08 11:53:45;;;;;;;7.90;3.80;;;;;;;12.83;46.98;100336.92;1641284;87;21383;-69
2021/11/08 11:56:13;;;;;;;6.67;3.73;;;;;;;12.83;46.71;100360.53;1670048;86;21194;-68
2021/11/08 11:58:40;;;;;;;7.00;3.87;;;;;;;12.77;46.56;100348.23;1641355;87;21271;-69
2021/11/08 12:01:10;;;;;;;6.30;3.80;;;;;;;12.77;46.82;100339.39;1669848;86;21123;-68
2021/11/08 12:03:36;;;;;;;6.63;3.60;;;;;;;12.81;46.94;100344.45;1641194;87;21281;-68
2021/11/08 12:06:03;;;;;;;7.63;3.60;;;;;;;12.83;46.85;100343.62;1669879;86;21756;-68
2021/11/08 12:08:37;;;;;;;7.40;3.50;;;;;;;12.84;46.73;100337.20;1641408;87;21320;-71
2021/11/08 12:11:04;;;;;;;7.27;3.93;;;;;;;12.81;46.71;100349.28;1669091;84;21291;-70
2021/11/08 12:13:32;;;;;;;6.57;3.60;;;;;;;12.83;47.13;100351.16;1669951;85;21268;-70
2021/11/08 12:16:26;;;;;;;7.83;4.00;;;;;;;12.86;47.35;100369.33;1671274;85;21198;-69
2021/11/08 12:18:50;;;;;;;6.37;3.73;;;;;;;12.86;47.25;100371.22;1671353;85;21784;-69
2021/11/08 12:21:30;;;;;;;7.30;3.70;;;;;;;12.84;47.12;100366.15;1671540;85;21307;-68
2021/11/08 12:23:58;;;;;;;7.73;3.83;;;;;;;12.84;47.23;100355.97;1669865;85;21203;-70
2021/11/08 12:26:28;;;;;;;7.23;3.83;;;;;;;12.81;47.33;100366.70;1671189;84;21192;-69
2021/11/08 12:29:11;;;;;;;6.93;3.80;;;;;;;12.78;47.25;100369.13;1670004;85;21321;-69
2021/11/08 12:31:38;;;;;;;6.67;4.03;;;;;;;12.79;47.53;100368.05;1641317;86;21323;-68
2021/11/08 12:34:14;;;;;;;7.50;3.50;;;;;;;12.75;47.38;100367.80;1671768;85;21233;-68
2021/11/08 12:36:41;;;;;;;9.07;4.30;;;;;;;12.76;47.65;100378.77;1669835;85;21560;-69
2021/11/08 12:39:12;;;;;;;6.37;4.00;;;;;;;12.74;47.96;100377.47;1642882;87;21800;-69
2021/11/08 12:41:48;;;;;;;6.80;3.70;;;;;;;12.74;47.85;100380.94;1671252;84;21391;-69
2021/11/08 12:44:18;;;;;;;10.97;4.60;;;;;;;12.73;47.58;100391.38;1642244;86;21314;-69
2021/11/08 12:47:01;;;;;;;6.33;3.90;;;;;;;12.73;47.93;100379.86;1671217;85;21357;-69
2021/11/08 12:49:33;;;;;;;;;;;;;;;12.75;48.07;100387.10;1645339;87;21781;-69
2021/11/08 12:52:15;;;;;;;8.27;4.60;;;;;;;12.74;47.97;100383.63;1671438;84;20157;-69
2021/11/08 12:55:04;;;;;;;7.37;4.27;;;;;;;12.72;48.16;100391.12;1671195;85;21281;-69
2021/11/08 12:57:33;;;;;;;6.78;3.50;;;;;;;12.67;47.94;100381.24;1671410;84;21313;-69
2021/11/08 13:00:18;;;;;;;5.70;3.53;;;;;;;12.65;48.01;100384.72;1642625;87;21031;-70
2021/11/08 13:02:55;;;;;;;7.40;3.70;;;;;;;12.66;48.17;100384.98;1671445;85;21813;-70
2021/11/08 13:05:36;;;;;;;8.07;3.93;;;;;;;12.61;47.90;100384.22;1642447;86;21798;-69